sensor_id;sensor_type;location;lat;lon;timestamp;temperature;humidity
15947;DHT22;8072;52.554;7.966;2022-12-20T00:00:03;8.30;99.90
15947;DHT22;8072;52.554;7.966;2022-12-20T00:02:29;8.30;99.90
15947;DHT22;8072;52.554;7.966;2022-12-20T00:04:55;8.30;99.90
15947;DHT22;8072;52.554;7.966;2022-12-20T00:07:21;8.20;99.90
15947;DHT22;8072;52.554;7.966;2022-12-20T00:09:46;8.20;99.90
15947;DHT22;8072;52.554;7.966;2022-12-20T00:12:12;8.30;99.90
15947;DHT22;8072;52.554;7.966;2022-12-20T00:14:38;8.30;99.90
15947;DHT22;8072;52.554;7.966;2022-12-20T00:17:04;8.40;99.90
15947;DHT22;8072;52.554;7.966;2022-12-20T00:19:30;8.40;99.90
15947;DHT22;8072;52.554;7.966;2022-12-20T00:21:55;8.40;99.90
15947;DHT22;8072;52.554;7.966;2022-12-20T00:24:21;8.50;99.90
15947;DHT22;8072;52.554;7.966;2022-12-20T00:26:47;8.50;99.90
15947;DHT22;8072;52.554;7.966;2022-12-20T00:29:12;8.50;99.90
15947;DHT22;8072;52.554;7.966;2022-12-20T00:31:38;8.50;99.90
15947;DHT22;8072;52.554;7.966;2022-12-20T00:34:04;8.60;99.90
15947;DHT22;8072;52.554;7.966;2022-12-20T00:36:31;8.60;99.90
15947;DHT22;8072;52.554;7.966;2022-12-20T00:38:58;8.70;99.90
15947;DHT22;8072;52.554;7.966;2022-12-20T00:41:27;8.70;99.90
15947;DHT22;8072;52.554;7.966;2022-12-20T00:43:53;8.70;99.90
15947;DHT22;8072;52.554;7.966;2022-12-20T00:46:19;8.70;99.90
15947;DHT22;8072;52.554;7.966;2022-12-20T00:48:46;8.70;99.90
15947;DHT22;8072;52.554;7.966;2022-12-20T00:51:15;8.80;99.90
15947;DHT22;8072;52.554;7.966;2022-12-20T00:53:41;8.80;99.90
15947;DHT22;8072;52.554;7.966;2022-12-20T00:56:08;8.80;99.90
15947;DHT22;8072;52.554;7.966;2022-12-20T00:58:36;8.80;99.90
15947;DHT22;8072;52.554;7.966;2022-12-20T01:01:04;8.80;99.90
15947;DHT22;8072;52.554;7.966;2022-12-20T01:03:30;8.80;99.90
15947;DHT22;8072;52.554;7.966;2022-12-20T01:06:01;8.80;99.90
15947;DHT22;8072;52.554;7.966;2022-12-20T01:08:28;8.80;99.90
15947;DHT22;8072;52.554;7.966;2022-12-20T01:11:03;8.80;99.90
15947;DHT22;8072;52.554;7.966;2022-12-20T01:13:30;8.90;99.90
15947;DHT22;8072;52.554;7.966;2022-12-20T01:15:57;8.90;99.90
15947;DHT22;8072;52.554;7.966;2022-12-20T01:18:27;8.90;99.90
15947;DHT22;8072;52.554;7.966;2022-12-20T01:21:03;8.90;99.90
15947;DHT22;8072;52.554;7.966;2022-12-20T01:23:30;8.90;99.90
15947;DHT22;8072;52.554;7.966;2022-12-20T01:26:01;8.90;99.90
15947;DHT22;8072;52.554;7.966;2022-12-20T01:28:27;8.90;99.90
15947;DHT22;8072;52.554;7.966;2022-12-20T01:30:53;9.00;99.90
15947;DHT22;8072;52.554;7.966;2022-12-20T01:33:19;9.00;99.90
15947;DHT22;8072;52.554;7.966;2022-12-20T01:36:06;9.00;99.90
15947;DHT22;8072;52.554;7.966;2022-12-20T01:38:32;9.00;99.90
15947;DHT22;8072;52.554;7.966;2022-12-20T01:40:58;9.00;99.90
15947;DHT22;8072;52.554;7.966;2022-12-20T01:46:12;9.00;99.90
15947;DHT22;8072;52.554;7.966;2022-12-20T01:48:38;9.00;99.90
15947;DHT22;8072;52.554;7.966;2022-12-20T01:51:05;9.00;99.90
15947;DHT22;8072;52.554;7.966;2022-12-20T01:53:31;8.90;99.90
15947;DHT22;8072;52.554;7.966;2022-12-20T01:56:00;8.90;99.90
15947;DHT22;8072;52.554;7.966;2022-12-20T01:58:27;8.90;99.90
15947;DHT22;8072;52.554;7.966;2022-12-20T02:00:53;8.90;99.90
15947;DHT22;8072;52.554;7.966;2022-12-20T02:03:18;8.80;99.90
15947;DHT22;8072;52.554;7.966;2022-12-20T02:05:45;8.80;99.90
15947;DHT22;8072;52.554;7.966;2022-12-20T02:08:13;8.80;99.90
15947;DHT22;8072;52.554;7.966;2022-12-20T02:13:23;8.80;99.90
15947;DHT22;8072;52.554;7.966;2022-12-20T02:15:56;8.80;99.90
15947;DHT22;8072;52.554;7.966;2022-12-20T02:18:24;8.80;99.90
15947;DHT22;8072;52.554;7.966;2022-12-20T02:31:30;8.80;99.90
15947;DHT22;8072;52.554;7.966;2022-12-20T02:33:59;8.90;99.90
15947;DHT22;8072;52.554;7.966;2022-12-20T02:36:27;8.90;99.90
15947;DHT22;8072;52.554;7.966;2022-12-20T02:38:53;8.90;99.90
15947;DHT22;8072;52.554;7.966;2022-12-20T02:41:29;8.90;99.90
15947;DHT22;8072;52.554;7.966;2022-12-20T02:44:02;8.90;99.90
15947;DHT22;8072;52.554;7.966;2022-12-20T02:46:49;9.00;99.90
15947;DHT22;8072;52.554;7.966;2022-12-20T02:49:17;9.00;99.90
15947;DHT22;8072;52.554;7.966;2022-12-20T02:51:46;9.00;99.90
15947;DHT22;8072;52.554;7.966;2022-12-20T02:54:14;9.00;99.90
15947;DHT22;8072;52.554;7.966;2022-12-20T02:56:53;9.00;99.90
15947;DHT22;8072;52.554;7.966;2022-12-20T02:59:42;9.00;99.90
15947;DHT22;8072;52.554;7.966;2022-12-20T03:02:09;9.00;99.90
15947;DHT22;8072;52.554;7.966;2022-12-20T03:04:37;9.00;99.90
15947;DHT22;8072;52.554;7.966;2022-12-20T03:07:10;9.00;99.90
15947;DHT22;8072;52.554;7.966;2022-12-20T03:09:38;9.10;99.90
15947;DHT22;8072;52.554;7.966;2022-12-20T03:12:05;9.10;99.90
15947;DHT22;8072;52.554;7.966;2022-12-20T03:14:31;9.00;99.90
15947;DHT22;8072;52.554;7.966;2022-12-20T03:16:57;9.10;99.90
15947;DHT22;8072;52.554;7.966;2022-12-20T03:19:23;9.00;99.90
15947;DHT22;8072;52.554;7.966;2022-12-20T03:21:49;9.00;99.90
15947;DHT22;8072;52.554;7.966;2022-12-20T03:24:15;9.10;99.90
15947;DHT22;8072;52.554;7.966;2022-12-20T03:26:42;9.10;99.90
15947;DHT22;8072;52.554;7.966;2022-12-20T03:29:08;9.20;99.90
15947;DHT22;8072;52.554;7.966;2022-12-20T03:31:34;9.20;99.90
15947;DHT22;8072;52.554;7.966;2022-12-20T03:34:01;9.30;99.90
15947;DHT22;8072;52.554;7.966;2022-12-20T03:36:27;9.30;99.90
15947;DHT22;8072;52.554;7.966;2022-12-20T03:38:53;9.40;99.90
15947;DHT22;8072;52.554;7.966;2022-12-20T03:41:20;9.40;99.90
15947;DHT22;8072;52.554;7.966;2022-12-20T03:43:47;9.60;99.90
15947;DHT22;8072;52.554;7.966;2022-12-20T03:46:13;9.60;99.90
15947;DHT22;8072;52.554;7.966;2022-12-20T03:48:39;9.70;99.90
15947;DHT22;8072;52.554;7.966;2022-12-20T03:51:05;9.90;99.90
15947;DHT22;8072;52.554;7.966;2022-12-20T03:53:31;10.00;99.90
15947;DHT22;8072;52.554;7.966;2022-12-20T03:55:58;10.00;99.90
15947;DHT22;8072;52.554;7.966;2022-12-20T03:58:23;10.10;99.90
15947;DHT22;8072;52.554;7.966;2022-12-20T04:00:49;10.10;99.90
15947;DHT22;8072;52.554;7.966;2022-12-20T04:03:15;10.10;99.90
15947;DHT22;8072;52.554;7.966;2022-12-20T04:05:41;10.10;99.90
15947;DHT22;8072;52.554;7.966;2022-12-20T04:08:07;10.10;99.90
15947;DHT22;8072;52.554;7.966;2022-12-20T04:10:32;10.10;99.90
15947;DHT22;8072;52.554;7.966;2022-12-20T04:13:18;10.10;99.90
15947;DHT22;8072;52.554;7.966;2022-12-20T04:15:44;10.10;99.90
15947;DHT22;8072;52.554;7.966;2022-12-20T04:18:10;10.10;99.90
15947;DHT22;8072;52.554;7.966;2022-12-20T04:20:35;10.00;99.90
15947;DHT22;8072;52.554;7.966;2022-12-20T04:23:01;10.00;99.90
15947;DHT22;8072;52.554;7.966;2022-12-20T04:25:27;10.00;99.90
15947;DHT22;8072;52.554;7.966;2022-12-20T04:27:53;9.80;99.90
15947;DHT22;8072;52.554;7.966;2022-12-20T04:30:20;9.80;99.90
15947;DHT22;8072;52.554;7.966;2022-12-20T04:32:45;9.70;99.90
15947;DHT22;8072;52.554;7.966;2022-12-20T04:35:11;9.70;99.90
15947;DHT22;8072;52.554;7.966;2022-12-20T04:37:37;9.60;99.90
15947;DHT22;8072;52.554;7.966;2022-12-20T04:40:04;9.60;99.90
15947;DHT22;8072;52.554;7.966;2022-12-20T04:42:29;9.60;99.90
15947;DHT22;8072;52.554;7.966;2022-12-20T04:44:55;9.60;99.90
15947;DHT22;8072;52.554;7.966;2022-12-20T04:47:21;9.50;99.90
15947;DHT22;8072;52.554;7.966;2022-12-20T04:49:47;9.50;99.90
15947;DHT22;8072;52.554;7.966;2022-12-20T04:52:13;9.40;99.90
15947;DHT22;8072;52.554;7.966;2022-12-20T04:54:58;9.40;99.90
15947;DHT22;8072;52.554;7.966;2022-12-20T04:57:24;9.40;99.90
15947;DHT22;8072;52.554;7.966;2022-12-20T04:59:50;9.40;99.90
15947;DHT22;8072;52.554;7.966;2022-12-20T05:02:15;9.40;99.90
15947;DHT22;8072;52.554;7.966;2022-12-20T05:04:41;9.30;99.90
15947;DHT22;8072;52.554;7.966;2022-12-20T05:07:07;9.30;99.90
15947;DHT22;8072;52.554;7.966;2022-12-20T05:09:33;9.30;99.90
15947;DHT22;8072;52.554;7.966;2022-12-20T05:11:59;9.20;99.90
15947;DHT22;8072;52.554;7.966;2022-12-20T05:14:24;9.20;99.90
15947;DHT22;8072;52.554;7.966;2022-12-20T05:16:50;9.20;99.90
15947;DHT22;8072;52.554;7.966;2022-12-20T05:19:16;9.20;99.90
15947;DHT22;8072;52.554;7.966;2022-12-20T05:21:41;9.20;99.90
15947;DHT22;8072;52.554;7.966;2022-12-20T05:24:26;9.20;99.90
15947;DHT22;8072;52.554;7.966;2022-12-20T05:27:10;9.20;99.90
15947;DHT22;8072;52.554;7.966;2022-12-20T05:29:35;9.20;99.90
15947;DHT22;8072;52.554;7.966;2022-12-20T05:32:01;9.10;99.90
15947;DHT22;8072;52.554;7.966;2022-12-20T05:34:27;9.10;99.90
15947;DHT22;8072;52.554;7.966;2022-12-20T05:36:52;9.10;99.90
15947;DHT22;8072;52.554;7.966;2022-12-20T05:39:18;9.00;99.90
15947;DHT22;8072;52.554;7.966;2022-12-20T05:41:44;9.00;99.90
15947;DHT22;8072;52.554;7.966;2022-12-20T05:44:09;9.00;99.90
15947;DHT22;8072;52.554;7.966;2022-12-20T05:46:35;9.00;99.90
15947;DHT22;8072;52.554;7.966;2022-12-20T05:49:01;8.90;99.90
15947;DHT22;8072;52.554;7.966;2022-12-20T05:51:27;8.90;99.90
15947;DHT22;8072;52.554;7.966;2022-12-20T05:53:52;8.90;99.90
15947;DHT22;8072;52.554;7.966;2022-12-20T05:56:18;8.90;99.90
15947;DHT22;8072;52.554;7.966;2022-12-20T05:58:44;8.80;99.90
15947;DHT22;8072;52.554;7.966;2022-12-20T06:01:09;8.80;99.90
15947;DHT22;8072;52.554;7.966;2022-12-20T06:03:36;8.90;99.90
15947;DHT22;8072;52.554;7.966;2022-12-20T06:06:02;8.90;99.90
15947;DHT22;8072;52.554;7.966;2022-12-20T06:08:28;8.90;99.90
15947;DHT22;8072;52.554;7.966;2022-12-20T06:10:54;9.00;99.90
15947;DHT22;8072;52.554;7.966;2022-12-20T06:13:20;9.00;99.90
15947;DHT22;8072;52.554;7.966;2022-12-20T06:15:46;9.10;99.90
15947;DHT22;8072;52.554;7.966;2022-12-20T06:18:12;9.10;99.90
15947;DHT22;8072;52.554;7.966;2022-12-20T06:20:38;9.20;99.90
15947;DHT22;8072;52.554;7.966;2022-12-20T06:23:04;9.30;99.90
15947;DHT22;8072;52.554;7.966;2022-12-20T06:25:30;9.30;99.90
15947;DHT22;8072;52.554;7.966;2022-12-20T06:27:56;9.30;99.90
15947;DHT22;8072;52.554;7.966;2022-12-20T06:30:22;9.30;99.90
15947;DHT22;8072;52.554;7.966;2022-12-20T06:32:47;9.40;99.90
15947;DHT22;8072;52.554;7.966;2022-12-20T06:35:16;9.40;99.90
15947;DHT22;8072;52.554;7.966;2022-12-20T06:37:42;9.40;99.90
15947;DHT22;8072;52.554;7.966;2022-12-20T06:40:10;9.50;99.90
15947;DHT22;8072;52.554;7.966;2022-12-20T06:42:36;9.50;99.90
15947;DHT22;8072;52.554;7.966;2022-12-20T06:45:03;9.50;99.90
15947;DHT22;8072;52.554;7.966;2022-12-20T06:47:29;9.60;99.90
15947;DHT22;8072;52.554;7.966;2022-12-20T06:49:54;9.60;99.90
15947;DHT22;8072;52.554;7.966;2022-12-20T06:52:20;9.60;99.90
15947;DHT22;8072;52.554;7.966;2022-12-20T06:54:46;9.70;99.90
15947;DHT22;8072;52.554;7.966;2022-12-20T06:57:12;9.70;99.90
15947;DHT22;8072;52.554;7.966;2022-12-20T06:59:38;9.80;99.90
15947;DHT22;8072;52.554;7.966;2022-12-20T07:02:03;9.80;99.90
15947;DHT22;8072;52.554;7.966;2022-12-20T07:04:29;9.90;99.90
15947;DHT22;8072;52.554;7.966;2022-12-20T07:06:55;9.90;99.90
15947;DHT22;8072;52.554;7.966;2022-12-20T07:09:21;9.90;99.90
15947;DHT22;8072;52.554;7.966;2022-12-20T07:11:48;9.90;99.90
15947;DHT22;8072;52.554;7.966;2022-12-20T07:14:14;10.00;99.90
15947;DHT22;8072;52.554;7.966;2022-12-20T07:16:39;9.90;99.90
15947;DHT22;8072;52.554;7.966;2022-12-20T07:19:12;9.90;99.90
15947;DHT22;8072;52.554;7.966;2022-12-20T07:21:38;9.90;99.90
15947;DHT22;8072;52.554;7.966;2022-12-20T07:24:04;9.90;99.90
15947;DHT22;8072;52.554;7.966;2022-12-20T07:26:30;9.90;99.90
15947;DHT22;8072;52.554;7.966;2022-12-20T07:28:56;9.90;99.90
15947;DHT22;8072;52.554;7.966;2022-12-20T07:31:22;10.00;99.90
15947;DHT22;8072;52.554;7.966;2022-12-20T07:33:47;10.00;99.90
15947;DHT22;8072;52.554;7.966;2022-12-20T07:36:14;10.10;99.90
15947;DHT22;8072;52.554;7.966;2022-12-20T07:38:42;10.00;99.90
15947;DHT22;8072;52.554;7.966;2022-12-20T07:43:34;10.10;99.90
15947;DHT22;8072;52.554;7.966;2022-12-20T07:46:01;10.00;99.90
15947;DHT22;8072;52.554;7.966;2022-12-20T07:48:27;10.00;99.90
15947;DHT22;8072;52.554;7.966;2022-12-20T07:51:00;10.00;99.90
15947;DHT22;8072;52.554;7.966;2022-12-20T07:53:28;10.00;99.90
15947;DHT22;8072;52.554;7.966;2022-12-20T07:55:56;10.00;99.90
15947;DHT22;8072;52.554;7.966;2022-12-20T07:58:23;10.00;99.90
15947;DHT22;8072;52.554;7.966;2022-12-20T08:00:49;10.00;99.90
15947;DHT22;8072;52.554;7.966;2022-12-20T08:03:20;10.00;99.90
15947;DHT22;8072;52.554;7.966;2022-12-20T08:05:50;10.00;99.90
15947;DHT22;8072;52.554;7.966;2022-12-20T08:08:18;10.10;99.90
15947;DHT22;8072;52.554;7.966;2022-12-20T08:10:44;10.10;99.90
15947;DHT22;8072;52.554;7.966;2022-12-20T08:13:11;10.00;99.90
15947;DHT22;8072;52.554;7.966;2022-12-20T08:15:37;10.00;99.90
15947;DHT22;8072;52.554;7.966;2022-12-20T08:18:03;10.00;99.90
15947;DHT22;8072;52.554;7.966;2022-12-20T08:20:31;10.10;99.90
15947;DHT22;8072;52.554;7.966;2022-12-20T08:22:57;10.10;99.90
15947;DHT22;8072;52.554;7.966;2022-12-20T08:25:23;10.10;99.90
15947;DHT22;8072;52.554;7.966;2022-12-20T08:27:50;10.10;99.90
15947;DHT22;8072;52.554;7.966;2022-12-20T08:30:16;10.10;99.90
15947;DHT22;8072;52.554;7.966;2022-12-20T08:32:41;10.00;99.90
15947;DHT22;8072;52.554;7.966;2022-12-20T08:35:07;10.00;99.90
15947;DHT22;8072;52.554;7.966;2022-12-20T08:37:33;10.00;99.90
15947;DHT22;8072;52.554;7.966;2022-12-20T08:39:59;10.00;99.90
15947;DHT22;8072;52.554;7.966;2022-12-20T08:42:26;9.90;99.90
15947;DHT22;8072;52.554;7.966;2022-12-20T08:44:52;10.00;99.90
15947;DHT22;8072;52.554;7.966;2022-12-20T08:47:17;10.00;99.90
15947;DHT22;8072;52.554;7.966;2022-12-20T08:49:43;10.10;99.90
15947;DHT22;8072;52.554;7.966;2022-12-20T08:52:09;10.10;99.90
15947;DHT22;8072;52.554;7.966;2022-12-20T08:54:35;10.10;99.90
15947;DHT22;8072;52.554;7.966;2022-12-20T08:57:01;10.20;99.90
15947;DHT22;8072;52.554;7.966;2022-12-20T08:59:26;10.20;99.90
15947;DHT22;8072;52.554;7.966;2022-12-20T09:01:52;10.10;99.90
15947;DHT22;8072;52.554;7.966;2022-12-20T09:04:19;10.10;99.90
15947;DHT22;8072;52.554;7.966;2022-12-20T09:06:45;10.10;99.90
15947;DHT22;8072;52.554;7.966;2022-12-20T09:09:11;10.10;99.90
15947;DHT22;8072;52.554;7.966;2022-12-20T09:11:37;10.20;99.90
15947;DHT22;8072;52.554;7.966;2022-12-20T09:14:03;10.20;99.90
15947;DHT22;8072;52.554;7.966;2022-12-20T09:16:31;10.20;99.90
15947;DHT22;8072;52.554;7.966;2022-12-20T09:18:58;10.20;99.90
15947;DHT22;8072;52.554;7.966;2022-12-20T09:21:24;10.20;99.90
15947;DHT22;8072;52.554;7.966;2022-12-20T09:23:51;10.20;99.90
15947;DHT22;8072;52.554;7.966;2022-12-20T09:26:18;10.30;99.90
15947;DHT22;8072;52.554;7.966;2022-12-20T09:28:45;10.30;99.90
15947;DHT22;8072;52.554;7.966;2022-12-20T09:31:16;10.30;99.90
15947;DHT22;8072;52.554;7.966;2022-12-20T09:33:42;10.30;99.90
15947;DHT22;8072;52.554;7.966;2022-12-20T09:36:13;10.30;99.90
15947;DHT22;8072;52.554;7.966;2022-12-20T09:38:38;10.40;99.90
15947;DHT22;8072;52.554;7.966;2022-12-20T09:41:06;10.40;99.90
15947;DHT22;8072;52.554;7.966;2022-12-20T09:43:33;10.50;99.90
15947;DHT22;8072;52.554;7.966;2022-12-20T09:46:00;10.60;99.90
15947;DHT22;8072;52.554;7.966;2022-12-20T09:48:34;10.60;99.90
15947;DHT22;8072;52.554;7.966;2022-12-20T09:56:35;10.60;99.90
15947;DHT22;8072;52.554;7.966;2022-12-20T09:59:07;10.60;99.90
15947;DHT22;8072;52.554;7.966;2022-12-20T10:01:35;10.70;99.90
15947;DHT22;8072;52.554;7.966;2022-12-20T10:04:10;10.70;99.90
15947;DHT22;8072;52.554;7.966;2022-12-20T10:09:29;10.80;99.90
15947;DHT22;8072;52.554;7.966;2022-12-20T10:12:24;10.90;99.90
15947;DHT22;8072;52.554;7.966;2022-12-20T10:15:21;11.00;99.90
15947;DHT22;8072;52.554;7.966;2022-12-20T10:20:29;11.10;99.90
15947;DHT22;8072;52.554;7.966;2022-12-20T10:25:32;11.20;99.90
15947;DHT22;8072;52.554;7.966;2022-12-20T10:28:02;11.20;99.90
15947;DHT22;8072;52.554;7.966;2022-12-20T10:30:31;11.30;99.90
15947;DHT22;8072;52.554;7.966;2022-12-20T10:32:57;11.30;99.90
15947;DHT22;8072;52.554;7.966;2022-12-20T10:35:33;11.30;99.90
15947;DHT22;8072;52.554;7.966;2022-12-20T10:38:10;11.30;99.90
15947;DHT22;8072;52.554;7.966;2022-12-20T10:40:40;11.30;99.90
15947;DHT22;8072;52.554;7.966;2022-12-20T10:43:17;11.30;99.90
15947;DHT22;8072;52.554;7.966;2022-12-20T10:45:54;11.30;99.90
15947;DHT22;8072;52.554;7.966;2022-12-20T10:48:38;11.30;99.90
15947;DHT22;8072;52.554;7.966;2022-12-20T11:01:32;11.60;99.90
15947;DHT22;8072;52.554;7.966;2022-12-20T11:04:02;11.60;99.90
15947;DHT22;8072;52.554;7.966;2022-12-20T11:06:40;11.60;99.90
15947;DHT22;8072;52.554;7.966;2022-12-20T11:09:30;11.50;99.90
15947;DHT22;8072;52.554;7.966;2022-12-20T11:14:25;11.40;99.90
15947;DHT22;8072;52.554;7.966;2022-12-20T11:16:53;11.30;99.90
15947;DHT22;8072;52.554;7.966;2022-12-20T11:21:58;11.20;99.90
15947;DHT22;8072;52.554;7.966;2022-12-20T11:27:39;11.10;99.90
15947;DHT22;8072;52.554;7.966;2022-12-20T11:39:10;10.90;99.90
15947;DHT22;8072;52.554;7.966;2022-12-20T11:53:43;10.80;99.90
15947;DHT22;8072;52.554;7.966;2022-12-20T11:56:14;10.80;99.90
15947;DHT22;8072;52.554;7.966;2022-12-20T12:01:18;10.70;99.90
15947;DHT22;8072;52.554;7.966;2022-12-20T12:04:02;10.70;99.90
15947;DHT22;8072;52.554;7.966;2022-12-20T12:06:36;10.70;99.90
15947;DHT22;8072;52.554;7.966;2022-12-20T12:09:22;10.60;99.90
15947;DHT22;8072;52.554;7.966;2022-12-20T12:12:03;10.60;99.90
15947;DHT22;8072;52.554;7.966;2022-12-20T12:17:13;10.60;99.90
15947;DHT22;8072;52.554;7.966;2022-12-20T12:19:47;10.60;99.90
15947;DHT22;8072;52.554;7.966;2022-12-20T12:22:18;10.70;99.90
15947;DHT22;8072;52.554;7.966;2022-12-20T12:24:50;10.70;99.90
15947;DHT22;8072;52.554;7.966;2022-12-20T12:27:25;10.80;99.90
15947;DHT22;8072;52.554;7.966;2022-12-20T12:29:53;10.90;99.90
15947;DHT22;8072;52.554;7.966;2022-12-20T12:32:32;10.90;99.90
15947;DHT22;8072;52.554;7.966;2022-12-20T12:38:03;10.90;99.90
15947;DHT22;8072;52.554;7.966;2022-12-20T12:46:31;11.00;99.90
15947;DHT22;8072;52.554;7.966;2022-12-20T12:49:05;11.00;99.90
15947;DHT22;8072;52.554;7.966;2022-12-20T12:51:38;11.10;99.90
15947;DHT22;8072;52.554;7.966;2022-12-20T12:56:41;11.10;99.90
15947;DHT22;8072;52.554;7.966;2022-12-20T13:11:51;11.00;99.90
15947;DHT22;8072;52.554;7.966;2022-12-20T13:19:38;10.90;99.90
15947;DHT22;8072;52.554;7.966;2022-12-20T13:27:24;10.90;99.90
15947;DHT22;8072;52.554;7.966;2022-12-20T13:40:25;10.80;99.90
15947;DHT22;8072;52.554;7.966;2022-12-20T13:42:57;10.80;99.90
15947;DHT22;8072;52.554;7.966;2022-12-20T13:45:27;10.80;99.90
15947;DHT22;8072;52.554;7.966;2022-12-20T13:48:00;10.70;99.90
15947;DHT22;8072;52.554;7.966;2022-12-20T13:50:39;10.70;99.90
15947;DHT22;8072;52.554;7.966;2022-12-20T13:53:15;10.70;99.90
15947;DHT22;8072;52.554;7.966;2022-12-20T13:55:42;10.70;99.90
15947;DHT22;8072;52.554;7.966;2022-12-20T13:58:30;10.70;99.90
15947;DHT22;8072;52.554;7.966;2022-12-20T14:01:08;10.70;99.90
15947;DHT22;8072;52.554;7.966;2022-12-20T14:03:41;10.70;99.90
15947;DHT22;8072;52.554;7.966;2022-12-20T14:06:10;10.70;99.90
15947;DHT22;8072;52.554;7.966;2022-12-20T14:08:41;10.70;99.90
15947;DHT22;8072;52.554;7.966;2022-12-20T14:11:16;10.70;99.90
15947;DHT22;8072;52.554;7.966;2022-12-20T14:14:02;10.60;99.90
15947;DHT22;8072;52.554;7.966;2022-12-20T14:16:31;10.60;99.90
15947;DHT22;8072;52.554;7.966;2022-12-20T14:21:23;10.60;99.90
15947;DHT22;8072;52.554;7.966;2022-12-20T14:23:51;10.60;99.90
15947;DHT22;8072;52.554;7.966;2022-12-20T14:26:30;10.60;99.90
15947;DHT22;8072;52.554;7.966;2022-12-20T14:28:58;10.50;99.90
15947;DHT22;8072;52.554;7.966;2022-12-20T14:31:33;10.50;99.90
15947;DHT22;8072;52.554;7.966;2022-12-20T14:36:31;10.60;99.90
15947;DHT22;8072;52.554;7.966;2022-12-20T14:38:58;10.50;99.90
15947;DHT22;8072;52.554;7.966;2022-12-20T14:41:39;10.50;99.90
15947;DHT22;8072;52.554;7.966;2022-12-20T14:46:32;10.40;99.90
15947;DHT22;8072;52.554;7.966;2022-12-20T14:49:26;10.50;99.90
15947;DHT22;8072;52.554;7.966;2022-12-20T14:54:31;10.40;99.90
15947;DHT22;8072;52.554;7.966;2022-12-20T14:56:57;10.40;99.90
15947;DHT22;8072;52.554;7.966;2022-12-20T14:59:28;10.50;99.90
15947;DHT22;8072;52.554;7.966;2022-12-20T15:01:56;10.40;99.90
15947;DHT22;8072;52.554;7.966;2022-12-20T15:06:49;10.30;99.90
15947;DHT22;8072;52.554;7.966;2022-12-20T15:09:17;10.30;99.90
15947;DHT22;8072;52.554;7.966;2022-12-20T15:11:44;10.40;99.90
15947;DHT22;8072;52.554;7.966;2022-12-20T15:14:35;10.40;99.90
15947;DHT22;8072;52.554;7.966;2022-12-20T15:17:12;10.40;99.90
15947;DHT22;8072;52.554;7.966;2022-12-20T15:19:42;10.40;99.90
15947;DHT22;8072;52.554;7.966;2022-12-20T15:22:16;10.40;99.90
15947;DHT22;8072;52.554;7.966;2022-12-20T15:24:42;10.40;99.90
15947;DHT22;8072;52.554;7.966;2022-12-20T15:27:12;10.40;99.90
15947;DHT22;8072;52.554;7.966;2022-12-20T15:29:38;10.40;99.90
15947;DHT22;8072;52.554;7.966;2022-12-20T15:32:15;10.30;99.90
15947;DHT22;8072;52.554;7.966;2022-12-20T15:34:45;10.30;99.90
15947;DHT22;8072;52.554;7.966;2022-12-20T15:37:14;10.30;99.90
15947;DHT22;8072;52.554;7.966;2022-12-20T15:39:40;10.30;99.90
15947;DHT22;8072;52.554;7.966;2022-12-20T15:42:06;10.30;99.90
15947;DHT22;8072;52.554;7.966;2022-12-20T15:44:36;10.30;99.90
15947;DHT22;8072;52.554;7.966;2022-12-20T15:47:02;10.30;99.90
15947;DHT22;8072;52.554;7.966;2022-12-20T15:49:30;10.30;99.90
15947;DHT22;8072;52.554;7.966;2022-12-20T15:51:57;10.30;99.90
15947;DHT22;8072;52.554;7.966;2022-12-20T15:54:28;10.30;99.90
15947;DHT22;8072;52.554;7.966;2022-12-20T15:56:59;10.30;99.90
15947;DHT22;8072;52.554;7.966;2022-12-20T15:59:26;10.30;99.90
15947;DHT22;8072;52.554;7.966;2022-12-20T16:01:51;10.20;99.90
15947;DHT22;8072;52.554;7.966;2022-12-20T16:04:19;10.20;99.90
15947;DHT22;8072;52.554;7.966;2022-12-20T16:06:47;10.20;99.90
15947;DHT22;8072;52.554;7.966;2022-12-20T16:09:14;10.20;99.90
15947;DHT22;8072;52.554;7.966;2022-12-20T16:11:41;10.20;99.90
15947;DHT22;8072;52.554;7.966;2022-12-20T16:14:16;10.10;99.90
15947;DHT22;8072;52.554;7.966;2022-12-20T16:16:42;10.10;99.90
15947;DHT22;8072;52.554;7.966;2022-12-20T16:19:08;10.10;99.90
15947;DHT22;8072;52.554;7.966;2022-12-20T16:21:41;10.10;99.90
15947;DHT22;8072;52.554;7.966;2022-12-20T16:24:14;10.10;99.90
15947;DHT22;8072;52.554;7.966;2022-12-20T16:26:40;10.10;99.90
15947;DHT22;8072;52.554;7.966;2022-12-20T16:29:06;10.10;99.90
15947;DHT22;8072;52.554;7.966;2022-12-20T16:31:40;10.10;99.90
15947;DHT22;8072;52.554;7.966;2022-12-20T16:34:13;10.10;99.90
15947;DHT22;8072;52.554;7.966;2022-12-20T16:36:39;10.10;99.90
15947;DHT22;8072;52.554;7.966;2022-12-20T16:39:05;10.10;99.90
15947;DHT22;8072;52.554;7.966;2022-12-20T16:41:31;10.10;99.90
15947;DHT22;8072;52.554;7.966;2022-12-20T16:44:01;10.10;99.90
15947;DHT22;8072;52.554;7.966;2022-12-20T16:46:30;10.10;99.90
15947;DHT22;8072;52.554;7.966;2022-12-20T16:48:59;10.10;99.90
15947;DHT22;8072;52.554;7.966;2022-12-20T16:51:38;10.10;99.90
15947;DHT22;8072;52.554;7.966;2022-12-20T16:56:38;10.00;99.90
15947;DHT22;8072;52.554;7.966;2022-12-20T16:59:05;10.00;99.90
15947;DHT22;8072;52.554;7.966;2022-12-20T17:01:34;10.10;99.90
15947;DHT22;8072;52.554;7.966;2022-12-20T17:04:00;10.10;99.90
15947;DHT22;8072;52.554;7.966;2022-12-20T17:06:26;10.10;99.90
15947;DHT22;8072;52.554;7.966;2022-12-20T17:08:52;10.10;99.90
15947;DHT22;8072;52.554;7.966;2022-12-20T17:11:20;10.20;99.90
15947;DHT22;8072;52.554;7.966;2022-12-20T17:13:49;10.20;99.90
15947;DHT22;8072;52.554;7.966;2022-12-20T17:16:16;10.30;99.90
15947;DHT22;8072;52.554;7.966;2022-12-20T17:18:45;10.30;99.90
15947;DHT22;8072;52.554;7.966;2022-12-20T17:23:47;10.30;99.90
15947;DHT22;8072;52.554;7.966;2022-12-20T17:26:24;10.30;99.90
15947;DHT22;8072;52.554;7.966;2022-12-20T17:28:52;10.30;99.90
15947;DHT22;8072;52.554;7.966;2022-12-20T17:31:47;10.30;99.90
15947;DHT22;8072;52.554;7.966;2022-12-20T17:34:17;10.30;99.90
15947;DHT22;8072;52.554;7.966;2022-12-20T17:36:44;10.30;99.90
15947;DHT22;8072;52.554;7.966;2022-12-20T17:39:10;10.30;99.90
15947;DHT22;8072;52.554;7.966;2022-12-20T17:41:36;10.20;99.90
15947;DHT22;8072;52.554;7.966;2022-12-20T17:44:03;10.20;99.90
15947;DHT22;8072;52.554;7.966;2022-12-20T17:46:30;10.20;99.90
15947;DHT22;8072;52.554;7.966;2022-12-20T17:48:56;10.20;99.90
15947;DHT22;8072;52.554;7.966;2022-12-20T17:51:24;10.30;99.90
15947;DHT22;8072;52.554;7.966;2022-12-20T17:53:56;10.30;99.90
15947;DHT22;8072;52.554;7.966;2022-12-20T17:56:30;10.20;99.90
15947;DHT22;8072;52.554;7.966;2022-12-20T17:58:57;10.30;99.90
15947;DHT22;8072;52.554;7.966;2022-12-20T18:01:26;10.20;99.90
15947;DHT22;8072;52.554;7.966;2022-12-20T18:03:55;10.30;99.90
15947;DHT22;8072;52.554;7.966;2022-12-20T18:06:22;10.20;99.90
15947;DHT22;8072;52.554;7.966;2022-12-20T18:08:53;10.20;99.90
15947;DHT22;8072;52.554;7.966;2022-12-20T18:11:20;10.20;99.90
15947;DHT22;8072;52.554;7.966;2022-12-20T18:13:48;10.20;99.90
15947;DHT22;8072;52.554;7.966;2022-12-20T18:16:17;10.20;99.90
15947;DHT22;8072;52.554;7.966;2022-12-20T18:18:44;10.20;99.90
15947;DHT22;8072;52.554;7.966;2022-12-20T18:21:12;10.20;99.90